createdAt,value
2023-04-29T00:02:09.193Z,9.20
2023-04-29T00:04:35.669Z,9.17
2023-04-29T00:07:02.256Z,9.14
2023-04-29T00:09:28.670Z,9.13
2023-04-29T00:11:55.054Z,9.13
2023-04-29T00:14:21.462Z,9.14
2023-04-29T00:16:47.919Z,9.13
2023-04-29T00:19:14.280Z,9.12
2023-04-29T00:21:41.414Z,9.14
2023-04-29T00:24:07.830Z,9.13
2023-04-29T00:26:35.341Z,9.11
2023-04-29T00:29:01.872Z,9.11
2023-04-29T00:31:28.523Z,9.11
2023-04-29T00:33:54.970Z,9.10
2023-04-29T00:36:21.328Z,9.09
2023-04-29T00:38:47.734Z,9.12
2023-04-29T00:41:14.313Z,9.11
2023-04-29T00:43:40.787Z,9.12
2023-04-29T00:46:07.176Z,9.12
2023-04-29T00:48:33.616Z,9.08
2023-04-29T00:51:00.249Z,9.08
2023-04-29T00:53:27.047Z,9.07
2023-04-29T00:55:53.790Z,9.05
2023-04-29T00:58:20.341Z,9.05
2023-04-29T01:00:48.015Z,9.05
2023-04-29T01:03:14.696Z,9.07
2023-04-29T01:05:41.307Z,9.08
2023-04-29T01:08:34.021Z,9.05
2023-04-29T01:11:08.655Z,9.05
2023-04-29T01:13:44.420Z,9.02
2023-04-29T01:16:37.538Z,9.03
2023-04-29T01:19:17.552Z,9.00
2023-04-29T01:21:48.792Z,9.00
2023-04-29T01:24:16.100Z,9.01
2023-04-29T01:26:52.548Z,9.02
2023-04-29T01:29:51.745Z,9.04
2023-04-29T01:32:29.677Z,9.01
2023-04-29T01:35:22.473Z,9.03
2023-04-29T01:38:18.794Z,9.04
2023-04-29T01:40:56.721Z,9.05
2023-04-29T01:43:24.838Z,9.04
2023-04-29T01:45:53.743Z,9.05
2023-04-29T01:48:20.654Z,9.08
2023-04-29T01:50:47.539Z,9.07
2023-04-29T01:53:13.971Z,9.05
2023-04-29T01:55:40.305Z,9.05
2023-04-29T01:58:06.730Z,9.03
2023-04-29T02:00:33.096Z,9.07
2023-04-29T02:02:59.536Z,9.06
2023-04-29T02:05:26.121Z,9.05
2023-04-29T02:07:52.457Z,9.06
2023-04-29T02:10:18.792Z,9.06
2023-04-29T02:12:46.363Z,9.07
2023-04-29T02:15:12.738Z,9.07
2023-04-29T02:17:39.088Z,9.07
2023-04-29T02:20:06.157Z,9.07
2023-04-29T02:22:32.540Z,9.07
2023-04-29T02:24:58.889Z,9.06
2023-04-29T02:27:26.317Z,9.09
2023-04-29T02:29:52.934Z,9.06
2023-04-29T02:32:20.699Z,9.08
2023-04-29T02:34:47.194Z,9.11
2023-04-29T02:37:13.675Z,9.13
2023-04-29T02:39:40.096Z,9.12
2023-04-29T02:42:06.466Z,9.14
2023-04-29T02:44:32.857Z,9.13
2023-04-29T02:46:59.233Z,9.16
2023-04-29T02:49:25.716Z,9.16
2023-04-29T02:51:52.185Z,9.15
2023-04-29T02:54:18.684Z,9.14
2023-04-29T02:56:45.019Z,9.15
2023-04-29T02:59:11.342Z,9.16
2023-04-29T03:01:38.815Z,9.14
2023-04-29T03:04:06.808Z,9.13
2023-04-29T03:06:33.428Z,9.13
2023-04-29T03:08:59.754Z,9.13
2023-04-29T03:11:26.073Z,9.14
2023-04-29T03:13:52.530Z,9.14
2023-04-29T03:16:18.890Z,9.13
2023-04-29T03:18:45.345Z,9.12
2023-04-29T03:21:11.710Z,9.12
2023-04-29T03:23:39.558Z,9.14
2023-04-29T03:26:06.131Z,9.12
2023-04-29T03:28:32.614Z,9.10
2023-04-29T03:30:59.409Z,9.10
2023-04-29T03:33:25.784Z,9.12
2023-04-29T03:35:52.118Z,9.13
2023-04-29T03:38:18.470Z,9.10
2023-04-29T03:40:45.532Z,9.10
2023-04-29T03:43:13.836Z,9.09
2023-04-29T03:45:40.304Z,9.11
2023-04-29T03:48:06.837Z,9.11
2023-04-29T03:50:33.312Z,9.10
2023-04-29T03:52:59.830Z,9.11
2023-04-29T03:55:26.252Z,9.10
2023-04-29T03:57:52.567Z,9.12
2023-04-29T04:00:18.992Z,9.12
2023-04-29T04:02:46.098Z,9.12
2023-04-29T04:05:12.920Z,9.11
2023-04-29T04:07:39.438Z,9.08
2023-04-29T04:10:06.434Z,9.07
2023-04-29T04:12:32.832Z,9.05
2023-04-29T04:14:59.183Z,9.07
2023-04-29T04:17:25.600Z,9.05
2023-04-29T04:19:52.461Z,9.07
2023-04-29T04:22:19.019Z,9.07
2023-04-29T04:24:45.482Z,9.04
2023-04-29T04:27:11.827Z,9.04
2023-04-29T04:29:38.261Z,9.05
2023-04-29T04:32:05.685Z,9.08
2023-04-29T04:34:32.352Z,9.10
2023-04-29T04:36:58.710Z,9.07
2023-04-29T04:39:25.055Z,9.06
2023-04-29T04:41:51.468Z,9.09
2023-04-29T04:44:18.141Z,9.09
2023-04-29T04:46:44.510Z,9.09
2023-04-29T04:49:10.987Z,9.09
2023-04-29T04:51:37.316Z,9.12
2023-04-29T04:54:03.681Z,9.13
2023-04-29T04:56:30.112Z,9.12
2023-04-29T04:58:56.477Z,9.13
2023-04-29T05:01:22.859Z,9.14
2023-04-29T05:03:49.453Z,9.16
2023-04-29T05:06:16.131Z,9.17
2023-04-29T05:08:42.498Z,9.22
2023-04-29T05:11:19.569Z,9.25
2023-04-29T05:13:46.251Z,9.27
2023-04-29T05:16:12.693Z,9.31
2023-04-29T05:18:39.117Z,9.34
2023-04-29T05:21:06.009Z,9.40
2023-04-29T05:23:32.436Z,9.43
2023-04-29T05:25:58.761Z,9.46
2023-04-29T05:28:27.088Z,9.48
2023-04-29T05:30:54.653Z,9.52
2023-04-29T05:33:21.064Z,9.55
2023-04-29T05:35:47.906Z,9.61
2023-04-29T05:38:14.255Z,9.64
2023-04-29T05:40:40.722Z,9.71
2023-04-29T05:43:07.295Z,9.78
2023-04-29T05:45:33.636Z,9.86
2023-04-29T05:48:00.019Z,9.98
2023-04-29T05:50:26.494Z,10.03
2023-04-29T05:52:54.644Z,10.21
2023-04-29T05:55:21.221Z,10.40
2023-04-29T05:57:47.549Z,10.56
2023-04-29T06:00:14.009Z,10.67
2023-04-29T06:02:54.966Z,10.94
2023-04-29T06:05:25.206Z,10.98
2023-04-29T06:07:52.316Z,10.87
2023-04-29T06:10:19.061Z,10.78
2023-04-29T06:12:46.660Z,10.77
2023-04-29T06:15:13.119Z,10.78
2023-04-29T06:17:40.337Z,10.83
2023-04-29T06:20:07.423Z,10.91
2023-04-29T06:22:33.937Z,10.88
2023-04-29T06:25:00.340Z,10.81
2023-04-29T06:27:28.244Z,10.73
2023-04-29T06:29:54.725Z,10.71
2023-04-29T06:32:21.362Z,10.77
2023-04-29T06:34:47.944Z,10.81
2023-04-29T06:37:14.329Z,10.88
2023-04-29T06:39:40.818Z,10.96
2023-04-29T06:42:07.292Z,10.94
2023-04-29T06:44:33.684Z,11.07
2023-04-29T06:47:00.163Z,11.10
2023-04-29T06:49:26.676Z,11.10
2023-04-29T06:51:53.100Z,11.04
2023-04-29T06:54:19.456Z,11.14
2023-04-29T06:56:45.872Z,11.26
2023-04-29T06:59:12.606Z,11.44
2023-04-29T07:01:40.703Z,11.52
2023-04-29T07:04:08.249Z,11.59
2023-04-29T07:06:34.645Z,11.70
2023-04-29T07:09:01.033Z,11.90
2023-04-29T07:11:27.761Z,12.02
2023-04-29T07:13:54.102Z,12.00
2023-04-29T07:16:21.948Z,12.10
2023-04-29T07:18:49.161Z,12.32
2023-04-29T07:21:15.567Z,12.61
2023-04-29T07:23:42.015Z,12.98
2023-04-29T07:26:16.196Z,13.29
2023-04-29T07:28:43.498Z,13.07
2023-04-29T07:31:10.134Z,13.02
2023-04-29T07:33:36.600Z,12.82
2023-04-29T07:36:04.191Z,12.71
2023-04-29T07:38:30.711Z,12.70
2023-04-29T07:40:57.086Z,12.69
2023-04-29T07:43:23.496Z,12.55
2023-04-29T07:45:49.974Z,12.80
2023-04-29T07:48:16.414Z,13.02
2023-04-29T07:50:43.067Z,13.13
2023-04-29T07:53:09.810Z,13.33
2023-04-29T07:55:38.219Z,13.53
2023-04-29T07:58:04.692Z,13.51
2023-04-29T08:00:31.395Z,13.87
2023-04-29T08:02:58.044Z,14.07
2023-04-29T08:05:25.385Z,14.22
2023-04-29T08:07:52.440Z,14.46
2023-04-29T08:10:19.680Z,14.46
2023-04-29T08:12:46.785Z,14.51
2023-04-29T08:15:13.249Z,14.79
2023-04-29T08:17:39.738Z,14.89
2023-04-29T08:20:08.101Z,14.74
2023-04-29T08:22:34.539Z,14.45
2023-04-29T08:25:03.025Z,14.18
2023-04-29T08:27:29.367Z,14.14
2023-04-29T08:29:56.155Z,14.10
2023-04-29T08:32:22.779Z,14.05
2023-04-29T08:34:49.112Z,14.36
2023-04-29T08:37:17.726Z,14.85
2023-04-29T08:39:47.279Z,15.11
2023-04-29T08:42:13.734Z,15.45
2023-04-29T08:44:41.307Z,15.19
2023-04-29T08:47:08.973Z,15.05
2023-04-29T08:49:37.979Z,14.69
2023-04-29T08:52:04.814Z,14.40
2023-04-29T08:54:32.152Z,14.24
2023-04-29T08:56:59.858Z,14.31
2023-04-29T08:59:27.318Z,14.44
2023-04-29T09:01:54.581Z,14.31
2023-04-29T09:04:31.642Z,14.12
2023-04-29T09:06:59.277Z,14.25
2023-04-29T09:09:26.358Z,14.73
2023-04-29T09:11:53.433Z,14.90
2023-04-29T09:14:20.845Z,14.84
2023-04-29T09:16:47.753Z,14.83
2023-04-29T09:19:35.224Z,15.39
2023-04-29T09:22:03.752Z,15.80
2023-04-29T09:24:31.678Z,16.26
2023-04-29T09:26:59.616Z,16.54
2023-04-29T09:29:26.195Z,16.83
2023-04-29T09:31:58.542Z,16.71
2023-04-29T09:34:33.044Z,16.41
2023-04-29T09:36:59.432Z,16.39
2023-04-29T09:39:26.211Z,16.28
2023-04-29T09:41:52.630Z,16.32
2023-04-29T09:44:24.241Z,16.49
2023-04-29T09:47:02.853Z,16.76
2023-04-29T09:49:38.396Z,17.18
2023-04-29T09:52:06.826Z,17.14
2023-04-29T09:54:36.162Z,16.55
2023-04-29T09:57:06.157Z,16.03
2023-04-29T09:59:37.456Z,16.47
2023-04-29T10:02:23.874Z,16.87
2023-04-29T10:04:57.955Z,17.27
2023-04-29T10:07:28.043Z,17.40
2023-04-29T10:09:55.100Z,17.50
2023-04-29T10:12:21.486Z,17.54
2023-04-29T10:14:55.270Z,17.34
2023-04-29T10:17:40.975Z,16.64
2023-04-29T10:20:08.926Z,16.72
2023-04-29T10:22:49.670Z,16.76
2023-04-29T10:25:18.264Z,16.79
2023-04-29T10:27:45.790Z,17.52
2023-04-29T10:30:16.531Z,17.87
2023-04-29T10:32:52.037Z,17.53
2023-04-29T10:35:20.572Z,17.09
2023-04-29T10:37:48.825Z,16.94
2023-04-29T10:40:40.190Z,17.33
2023-04-29T10:43:06.747Z,17.50
2023-04-29T10:45:36.763Z,17.95
2023-04-29T10:48:03.361Z,18.26
2023-04-29T10:50:30.349Z,18.28
2023-04-29T10:52:57.794Z,17.39
2023-04-29T10:55:25.693Z,16.97
2023-04-29T10:57:58.025Z,17.11
2023-04-29T11:00:29.434Z,17.53
2023-04-29T11:03:00.795Z,17.87
2023-04-29T11:05:32.185Z,17.77
2023-04-29T11:08:24.218Z,17.80
2023-04-29T11:10:54.360Z,18.02
2023-04-29T11:13:28.598Z,17.90
2023-04-29T11:16:13.052Z,18.18
2023-04-29T11:19:07.900Z,18.79
2023-04-29T11:21:37.729Z,18.90
2023-04-29T11:24:06.206Z,19.00
2023-04-29T11:26:35.059Z,19.42
2023-04-29T11:29:01.781Z,19.47
2023-04-29T11:31:32.560Z,19.54
2023-04-29T11:34:00.344Z,19.45
2023-04-29T11:36:27.565Z,19.74
2023-04-29T11:38:54.120Z,20.02
2023-04-29T11:41:21.836Z,20.46
2023-04-29T11:43:55.575Z,20.64
2023-04-29T11:46:21.946Z,20.80
2023-04-29T11:48:49.541Z,21.14
2023-04-29T11:51:17.922Z,21.33
2023-04-29T11:53:45.162Z,20.84
2023-04-29T11:56:12.042Z,20.43
2023-04-29T11:58:39.219Z,20.75
2023-04-29T12:01:05.859Z,21.00
2023-04-29T12:03:33.889Z,21.39
2023-04-29T12:06:02.391Z,21.75
2023-04-29T12:08:30.124Z,21.98
2023-04-29T12:10:58.604Z,22.18
2023-04-29T12:13:28.364Z,21.53
2023-04-29T12:15:56.171Z,21.00
2023-04-29T12:18:23.417Z,20.76
2023-04-29T12:20:53.286Z,21.09
2023-04-29T12:23:24.023Z,21.33
2023-04-29T12:25:55.977Z,21.51
2023-04-29T12:28:22.805Z,21.62
2023-04-29T12:30:51.030Z,21.80
2023-04-29T12:33:26.717Z,21.74
2023-04-29T12:35:55.170Z,21.73
2023-04-29T12:38:28.994Z,21.90
2023-04-29T12:40:59.559Z,21.27
2023-04-29T12:43:29.985Z,21.68
2023-04-29T12:46:07.854Z,21.23
2023-04-29T12:48:38.457Z,21.20
2023-04-29T12:51:05.493Z,21.19
2023-04-29T12:53:32.606Z,21.70
2023-04-29T12:55:59.153Z,22.08
2023-04-29T12:58:29.412Z,21.77
2023-04-29T13:00:56.097Z,21.08
2023-04-29T13:03:22.913Z,20.53
2023-04-29T13:05:52.568Z,20.50
2023-04-29T13:08:19.512Z,21.40
2023-04-29T13:10:45.914Z,21.33
2023-04-29T13:13:12.252Z,21.11
2023-04-29T13:15:39.229Z,21.13
2023-04-29T13:18:05.855Z,21.50
2023-04-29T13:20:40.922Z,22.11
2023-04-29T13:23:09.037Z,22.12
2023-04-29T13:25:35.454Z,22.44
2023-04-29T13:28:01.983Z,22.46
2023-04-29T13:30:28.356Z,22.41
2023-04-29T13:32:56.737Z,22.49
2023-04-29T13:35:26.225Z,22.81
2023-04-29T13:37:52.564Z,22.71
2023-04-29T13:40:21.255Z,22.53
2023-04-29T13:42:50.555Z,22.55
2023-04-29T13:45:23.228Z,22.54
2023-04-29T13:51:00.855Z,22.27
2023-04-29T14:01:05.201Z,22.15
2023-04-29T14:03:20.068Z,22.15
2023-04-29T14:05:46.834Z,21.83
2023-04-29T14:08:14.130Z,22.08
2023-04-29T14:10:40.687Z,22.03
2023-04-29T14:13:07.258Z,22.13
2023-04-29T14:15:33.758Z,22.04
2023-04-29T14:18:00.340Z,22.08
2023-04-29T14:20:26.726Z,22.21
2023-04-29T14:22:53.130Z,22.25
2023-04-29T14:25:19.619Z,22.53
2023-04-29T14:27:46.024Z,22.50
2023-04-29T14:30:12.690Z,22.75
2023-04-29T14:32:39.176Z,22.61
2023-04-29T14:35:06.521Z,22.60
2023-04-29T14:37:32.945Z,22.66
2023-04-29T14:39:59.277Z,22.54
2023-04-29T14:42:25.916Z,22.63
2023-04-29T14:44:54.220Z,22.77
2023-04-29T14:47:20.831Z,22.87
2023-04-29T14:49:47.181Z,22.84
2023-04-29T14:52:13.514Z,22.60
2023-04-29T14:54:39.909Z,22.62
2023-04-29T14:57:06.344Z,22.62
2023-04-29T14:59:33.522Z,22.62
2023-04-29T15:01:59.982Z,22.29
2023-04-29T15:04:27.461Z,22.14
2023-04-29T15:06:54.555Z,21.99
2023-04-29T15:09:21.006Z,21.85
2023-04-29T15:11:47.354Z,21.68
2023-04-29T15:14:13.746Z,21.97
2023-04-29T15:16:40.114Z,22.32
2023-04-29T15:19:06.545Z,22.38
2023-04-29T15:21:33.109Z,22.21
2023-04-29T15:23:59.422Z,21.94
2023-04-29T15:26:26.742Z,21.94
2023-04-29T15:28:53.113Z,22.10
2023-04-29T15:31:19.569Z,21.98
2023-04-29T15:33:46.206Z,21.92
2023-04-29T15:36:13.238Z,21.83
2023-04-29T15:38:39.661Z,21.69
2023-04-29T15:41:06.789Z,21.79
2023-04-29T15:43:33.471Z,21.70
2023-04-29T15:46:00.173Z,22.16
2023-04-29T15:48:26.563Z,21.99
2023-04-29T15:50:53.624Z,21.81
2023-04-29T15:53:20.114Z,21.67
2023-04-29T15:55:46.478Z,21.70
2023-04-29T15:58:12.982Z,21.69
2023-04-29T16:00:40.546Z,21.26
2023-04-29T16:03:07.053Z,21.21
2023-04-29T16:05:34.417Z,21.15
2023-04-29T16:08:00.950Z,21.17
2023-04-29T16:10:27.328Z,21.18
2023-04-29T16:12:53.736Z,21.36
2023-04-29T16:15:20.516Z,21.33
2023-04-29T16:17:47.099Z,21.33
2023-04-29T16:20:13.636Z,21.20
2023-04-29T16:22:40.258Z,20.98
2023-04-29T16:25:07.101Z,21.02
2023-04-29T16:27:33.534Z,21.01
2023-04-29T16:30:00.204Z,20.81
2023-04-29T16:32:28.527Z,20.76
2023-04-29T16:34:55.282Z,20.64
2023-04-29T16:37:22.008Z,20.49
2023-04-29T16:39:48.650Z,20.34
2023-04-29T16:42:15.046Z,20.22
2023-04-29T16:44:41.439Z,19.96
2023-04-29T16:47:07.829Z,20.12
2023-04-29T16:49:34.692Z,19.91
2023-04-29T16:52:01.060Z,20.01
2023-04-29T16:54:27.803Z,19.93
2023-04-29T16:56:54.166Z,20.01
2023-04-29T16:59:20.608Z,20.11
2023-04-29T17:01:47.170Z,20.14
2023-04-29T17:04:13.741Z,20.32
2023-04-29T17:06:40.968Z,20.48
2023-04-29T17:09:07.603Z,20.67
2023-04-29T17:11:33.963Z,20.67
2023-04-29T17:14:00.430Z,20.63
2023-04-29T17:16:27.193Z,20.56
2023-04-29T17:18:54.266Z,20.53
2023-04-29T17:21:24.646Z,20.78
2023-04-29T17:23:53.966Z,21.05
2023-04-29T17:26:21.281Z,20.93
2023-04-29T17:28:47.904Z,20.87
2023-04-29T17:31:15.556Z,20.95
2023-04-29T17:33:54.398Z,21.04
2023-04-29T17:36:22.433Z,21.00
2023-04-29T17:38:48.806Z,20.84
2023-04-29T17:41:15.249Z,20.82
2023-04-29T17:43:41.687Z,20.89
2023-04-29T17:46:08.120Z,20.85
2023-04-29T17:48:34.622Z,20.63
2023-04-29T17:51:01.030Z,20.59
2023-04-29T17:53:28.585Z,20.48
2023-04-29T17:55:54.996Z,20.38
2023-04-29T17:58:21.494Z,20.04
2023-04-29T18:00:48.601Z,19.84
2023-04-29T18:03:15.248Z,19.33
2023-04-29T18:05:41.830Z,18.22
2023-04-29T18:08:08.190Z,17.47
2023-04-29T18:10:34.628Z,17.03
2023-04-29T18:13:03.279Z,16.67
2023-04-29T18:15:30.031Z,16.27
2023-04-29T18:17:56.475Z,15.90
2023-04-29T18:20:23.025Z,15.74
2023-04-29T18:22:50.437Z,15.65
2023-04-29T18:25:17.300Z,15.50
2023-04-29T18:27:44.394Z,15.24
2023-04-29T18:30:11.055Z,15.05
2023-04-29T18:32:38.157Z,14.94
2023-04-29T18:35:04.919Z,14.82
2023-04-29T18:37:31.366Z,14.72
2023-04-29T18:39:58.128Z,14.69
2023-04-29T18:42:24.586Z,14.57
2023-04-29T18:44:51.304Z,14.41
2023-04-29T18:47:17.805Z,14.25
2023-04-29T18:49:44.207Z,14.15
2023-04-29T18:52:10.621Z,14.06
2023-04-29T18:54:36.973Z,13.89
2023-04-29T18:57:03.827Z,13.73
2023-04-29T18:59:30.477Z,13.60
2023-04-29T19:01:57.068Z,13.51
2023-04-29T19:04:23.538Z,13.26
2023-04-29T19:06:49.946Z,13.25
2023-04-29T19:09:16.320Z,13.13
2023-04-29T19:11:42.706Z,13.02
2023-04-29T19:14:09.133Z,12.86
2023-04-29T19:16:37.294Z,12.79
2023-04-29T19:19:04.234Z,12.71
2023-04-29T19:21:33.046Z,12.63
2023-04-29T19:23:59.794Z,12.59
2023-04-29T19:26:26.166Z,12.44
2023-04-29T19:28:52.571Z,12.33
2023-04-29T19:31:18.953Z,12.25
2023-04-29T19:33:45.949Z,12.17
2023-04-29T19:36:14.190Z,12.18
2023-04-29T19:38:40.653Z,12.10
2023-04-29T19:41:07.125Z,12.06
2023-04-29T19:43:33.473Z,11.99
2023-04-29T19:45:59.911Z,11.87
2023-04-29T19:48:26.292Z,11.73
2023-04-29T19:50:52.709Z,11.72
2023-04-29T19:53:19.160Z,11.71
2023-04-29T19:55:45.607Z,11.65
2023-04-29T19:58:12.111Z,11.57
2023-04-29T20:00:38.548Z,11.52
2023-04-29T20:03:05.061Z,11.44
2023-04-29T20:05:31.443Z,11.42
2023-04-29T20:07:57.920Z,11.40
2023-04-29T20:10:24.761Z,11.40
2023-04-29T20:12:52.236Z,11.33
2023-04-29T20:15:18.656Z,11.26
2023-04-29T20:17:45.248Z,11.22
2023-04-29T20:20:11.845Z,11.17
2023-04-29T20:22:38.935Z,11.11
2023-04-29T20:25:06.110Z,11.03
2023-04-29T20:27:32.613Z,10.97
2023-04-29T20:29:58.999Z,10.93
2023-04-29T20:32:26.068Z,10.89
2023-04-29T20:34:53.713Z,10.85
2023-04-29T20:37:20.100Z,10.83
2023-04-29T20:39:47.181Z,10.80
2023-04-29T20:42:13.663Z,10.79
2023-04-29T20:44:40.754Z,10.65
2023-04-29T20:47:07.215Z,10.60
2023-04-29T20:49:33.649Z,10.57
2023-04-29T20:52:00.930Z,10.55
2023-04-29T20:54:27.387Z,10.50
2023-04-29T20:56:54.054Z,10.42
2023-04-29T20:59:20.487Z,10.41
2023-04-29T21:01:47.093Z,10.35
2023-04-29T21:04:13.772Z,10.28
2023-04-29T21:06:40.373Z,10.26
2023-04-29T21:09:06.856Z,10.24
2023-04-29T21:11:33.192Z,10.18
2023-04-29T21:13:59.613Z,10.12
2023-04-29T21:16:26.292Z,10.11
2023-04-29T21:18:52.774Z,10.08
2023-04-29T21:21:19.175Z,10.03
2023-04-29T21:23:45.671Z,10.03
2023-04-29T21:26:14.785Z,10.00
2023-04-29T21:28:41.572Z,9.94
2023-04-29T21:31:09.624Z,9.93
2023-04-29T21:33:36.061Z,9.90
2023-04-29T21:36:02.460Z,9.91
2023-04-29T21:38:28.925Z,9.88
2023-04-29T21:40:59.255Z,9.87
2023-04-29T21:43:27.531Z,9.84
2023-04-29T21:45:54.880Z,9.81
2023-04-29T21:48:21.938Z,9.80
2023-04-29T21:50:48.730Z,9.75
2023-04-29T21:53:16.566Z,9.69
2023-04-29T21:55:43.229Z,9.61
2023-04-29T21:58:10.845Z,9.60
2023-04-29T22:00:39.184Z,9.59
2023-04-29T22:03:08.729Z,9.53
2023-04-29T22:05:35.607Z,9.51
2023-04-29T22:08:03.320Z,9.50
2023-04-29T22:10:30.168Z,9.47
2023-04-29T22:12:56.606Z,9.41
2023-04-29T22:15:28.640Z,9.37
2023-04-29T22:17:56.879Z,9.30
2023-04-29T22:20:23.794Z,9.26
2023-04-29T22:22:50.516Z,9.25
2023-04-29T22:25:18.037Z,9.23
2023-04-29T22:27:44.464Z,9.23
2023-04-29T22:30:11.390Z,9.21
2023-04-29T22:32:37.997Z,9.17
2023-04-29T22:35:04.708Z,9.17
2023-04-29T22:37:31.594Z,9.14
2023-04-29T22:39:58.066Z,9.07
2023-04-29T22:42:24.519Z,9.00
2023-04-29T22:44:51.015Z,8.94
2023-04-29T22:47:17.454Z,8.94
2023-04-29T22:49:43.877Z,8.94
2023-04-29T22:52:10.342Z,8.92
2023-04-29T22:54:36.701Z,8.90
2023-04-29T22:57:03.953Z,8.87
2023-04-29T22:59:30.745Z,8.82
2023-04-29T23:01:57.362Z,8.82
2023-04-29T23:04:24.712Z,8.79
2023-04-29T23:06:51.518Z,8.76
2023-04-29T23:09:18.019Z,8.75
2023-04-29T23:11:44.484Z,8.71
2023-04-29T23:14:10.894Z,8.70
2023-04-29T23:16:37.205Z,8.68
2023-04-29T23:19:04.485Z,8.62
2023-04-29T23:21:31.146Z,8.59
2023-04-29T23:23:57.580Z,8.55
2023-04-29T23:26:23.956Z,8.51
2023-04-29T23:28:50.451Z,8.47
2023-04-29T23:31:16.927Z,8.42
2023-04-29T23:33:43.394Z,8.40
2023-04-29T23:36:09.819Z,8.35
2023-04-29T23:38:36.242Z,8.22
2023-04-29T23:41:02.676Z,8.15
2023-04-29T23:43:29.046Z,8.10
2023-04-29T23:45:55.537Z,8.05
2023-04-29T23:48:21.901Z,8.03
2023-04-29T23:50:48.333Z,8.03
2023-04-29T23:53:15.670Z,7.98
2023-04-29T23:55:42.081Z,7.97
2023-04-29T23:58:08.534Z,7.96
